METAR Formatted Surface Weather Observation
Issued by NWS

Home | Current Version | Previous Version | Text Only | Print | Product List | Glossary On
Versions: 1 2
000
SAHW31 PHFO 260456
MTRMKK
METAR PHMK 260454Z AUTO 04011G21KT 10SM CLR 25/22 A2995 RMK AO2
SLP144 T02500222 TSNO $


USA.gov is the U.S. government's official web portal to all federal, state and local government web resources and services.